createdAt,value
2019-01-11T00:02:46.726Z,0.30
2019-01-11T00:05:28.556Z,0.40
2019-01-11T00:08:16.580Z,0.30
2019-01-11T00:10:58.399Z,0.30
2019-01-11T00:13:46.393Z,0.40
2019-01-11T00:16:34.430Z,0.40
2019-01-11T00:19:16.151Z,0.60
2019-01-11T00:22:24.852Z,0.70
2019-01-11T00:25:06.821Z,0.70
2019-01-11T00:27:54.865Z,0.50
2019-01-11T00:30:36.892Z,0.40
2019-01-11T00:33:05.667Z,0.40
2019-01-11T00:35:53.628Z,0.40
2019-01-11T00:38:41.672Z,0.30
2019-01-11T00:41:23.406Z,0.30
2019-01-11T00:44:05.452Z,0.20
2019-01-11T00:46:53.489Z,0.30
2019-01-11T00:49:35.257Z,0.40
2019-01-11T00:52:17.357Z,0.50
2019-01-11T00:55:17.797Z,0.60
2019-01-11T00:57:59.207Z,0.60
2019-01-11T01:00:47.242Z,0.70
2019-01-11T01:03:29.175Z,0.70
2019-01-11T01:05:57.821Z,0.80
2019-01-11T01:08:45.826Z,0.90
2019-01-11T01:11:27.913Z,0.80
2019-01-11T01:14:15.968Z,0.70
2019-01-11T01:16:58.015Z,0.70
2019-01-11T01:19:46.017Z,0.70
2019-01-11T01:22:27.831Z,0.80
2019-01-11T01:25:15.878Z,0.90
2019-01-11T01:27:57.529Z,0.80
2019-01-11T01:30:45.565Z,0.90
2019-01-11T01:33:27.447Z,0.90
2019-01-11T01:36:15.475Z,0.90
2019-01-11T01:38:57.521Z,0.90
2019-01-11T01:41:45.561Z,0.90
2019-01-11T01:44:26.949Z,1.00
2019-01-11T01:47:15.000Z,0.80
2019-01-11T01:49:56.654Z,0.80
2019-01-11T01:52:38.444Z,0.90
2019-01-11T01:55:26.492Z,1.00
2019-01-11T01:58:08.464Z,0.90
2019-01-11T02:00:56.531Z,0.90
2019-01-11T02:03:38.222Z,0.90
2019-01-11T02:06:26.268Z,0.80
2019-01-11T02:09:14.273Z,0.80
2019-01-11T02:11:56.191Z,0.60
2019-01-11T02:14:39.255Z,0.70
2019-01-11T02:17:27.546Z,0.70
2019-01-11T02:20:13.733Z,0.60
2019-01-11T02:23:01.991Z,0.70
2019-01-11T02:25:46.281Z,0.70
2019-01-11T02:28:34.234Z,0.50
2019-01-11T02:31:17.349Z,0.70
2019-01-11T02:34:05.601Z,0.70
2019-01-11T02:36:48.236Z,0.70
2019-01-11T02:39:36.458Z,0.70
2019-01-11T02:42:19.095Z,0.80
2019-01-11T02:45:21.726Z,0.70
2019-01-11T02:48:03.785Z,0.70
2019-01-11T02:50:52.055Z,0.80
2019-01-11T02:53:33.650Z,0.90
2019-01-11T02:56:21.828Z,0.90
2019-01-11T02:59:06.219Z,1.00
2019-01-11T03:01:54.390Z,0.80
2019-01-11T03:04:36.398Z,1.10
2019-01-11T03:07:24.501Z,1.00
2019-01-11T03:10:07.527Z,1.00
2019-01-11T03:12:55.729Z,1.00
2019-01-11T03:15:37.036Z,1.10
2019-01-11T03:18:39.746Z,1.00
2019-01-11T03:21:27.916Z,1.10
2019-01-11T03:24:09.740Z,1.10
2019-01-11T03:26:57.933Z,0.90
2019-01-11T03:32:20.685Z,1.20
2019-01-11T03:38:06.033Z,1.10
2019-01-11T03:40:54.240Z,1.00
2019-01-11T03:43:36.289Z,0.90
2019-01-11T03:46:24.556Z,1.10
2019-01-11T03:49:06.178Z,1.10
2019-01-11T03:51:54.329Z,1.10
2019-01-11T03:54:38.336Z,1.20
2019-01-11T03:57:26.455Z,1.10
2019-01-11T04:00:09.860Z,1.10
2019-01-11T04:02:57.901Z,1.00
2019-01-11T04:05:39.738Z,1.10
2019-01-11T04:08:08.640Z,1.10
2019-01-11T04:10:56.678Z,0.90
2019-01-11T04:13:37.990Z,1.00
2019-01-11T04:16:06.854Z,0.90
2019-01-11T04:21:52.224Z,0.90
2019-01-11T04:24:59.861Z,0.90
2019-01-11T04:27:41.908Z,0.80
2019-01-11T04:30:30.085Z,0.90
2019-01-11T04:33:12.405Z,0.80
2019-01-11T04:36:00.678Z,0.90
2019-01-11T04:38:43.791Z,0.80
2019-01-11T04:41:31.989Z,0.70
2019-01-11T04:44:13.921Z,0.80
2019-01-11T04:49:54.369Z,0.80
2019-01-11T04:52:42.663Z,0.80
2019-01-11T04:55:30.833Z,0.80
2019-01-11T04:58:12.660Z,0.80
2019-01-11T05:01:03.041Z,0.90
2019-01-11T05:03:45.029Z,1.00
2019-01-11T05:06:33.012Z,0.90
2019-01-11T05:09:15.204Z,1.00
2019-01-11T05:12:03.514Z,0.90
2019-01-11T05:14:45.372Z,0.90
2019-01-11T05:17:33.388Z,0.80
2019-01-11T05:20:17.148Z,1.10
2019-01-11T05:23:05.669Z,1.00
2019-01-11T05:25:54.017Z,1.00
2019-01-11T05:28:43.189Z,1.10
2019-01-11T05:31:24.446Z,1.00
2019-01-11T05:34:12.715Z,1.00
2019-01-11T05:36:54.645Z,1.10
2019-01-11T05:39:42.858Z,1.10
2019-01-11T05:42:31.027Z,0.90
2019-01-11T05:45:12.751Z,0.90
2019-01-11T05:48:01.103Z,1.00
2019-01-11T05:50:42.963Z,1.00
2019-01-11T05:53:31.611Z,1.10
2019-01-11T05:56:13.890Z,1.00
2019-01-11T06:01:53.986Z,0.90
2019-01-11T06:07:39.089Z,0.90
2019-01-11T06:10:27.282Z,1.00
2019-01-11T06:13:09.059Z,0.80
2019-01-11T06:15:57.068Z,0.90
2019-01-11T06:18:39.327Z,1.00
2019-01-11T06:21:20.564Z,1.00
2019-01-11T06:24:08.873Z,0.90
2019-01-11T06:26:50.414Z,0.80
2019-01-11T06:29:38.621Z,1.00
2019-01-11T06:32:20.209Z,1.00
2019-01-11T06:35:08.436Z,1.10
2019-01-11T06:37:50.097Z,0.90
2019-01-11T06:40:38.340Z,0.80
2019-01-11T06:43:19.661Z,0.80
2019-01-11T06:46:07.662Z,0.70
2019-01-11T06:48:48.828Z,0.80
2019-01-11T06:51:36.992Z,0.60
2019-01-11T06:54:18.826Z,0.50
2019-01-11T06:57:06.859Z,0.60
2019-01-11T06:59:54.828Z,0.60
2019-01-11T07:02:36.707Z,0.60
2019-01-11T07:05:24.704Z,0.60
2019-01-11T07:08:06.536Z,0.50
2019-01-11T07:10:54.982Z,0.40
2019-01-11T07:16:36.625Z,0.40
2019-01-11T07:19:24.635Z,0.50
2019-01-11T07:22:06.457Z,0.40
2019-01-11T07:24:54.457Z,0.40
2019-01-11T07:27:38.223Z,0.40
2019-01-11T07:33:23.713Z,0.50
2019-01-11T07:36:30.957Z,0.40
2019-01-11T07:39:13.910Z,0.30
2019-01-11T07:42:01.942Z,0.40
2019-01-11T07:44:43.879Z,0.30
2019-01-11T07:47:31.946Z,0.50
2019-01-11T07:50:19.981Z,0.50
2019-01-11T07:53:08.004Z,0.40
2019-01-11T07:55:50.019Z,0.40
2019-01-11T08:01:39.182Z,0.50
2019-01-11T08:04:27.156Z,0.50
2019-01-11T08:07:09.504Z,0.40
2019-01-11T08:09:57.598Z,0.50
2019-01-11T08:12:39.872Z,0.50
2019-01-11T08:15:27.897Z,0.40
2019-01-11T08:17:56.593Z,0.40
2019-01-11T08:20:57.428Z,0.40
2019-01-11T08:23:39.504Z,0.30
2019-01-11T08:26:27.839Z,0.50
2019-01-11T08:29:10.248Z,0.50
2019-01-11T08:31:58.402Z,0.40
2019-01-11T08:34:39.929Z,0.50
2019-01-11T08:40:31.584Z,-0.30
2019-01-11T08:43:13.804Z,0.60
2019-01-11T08:46:02.089Z,0.60
2019-01-11T08:48:44.697Z,0.70
2019-01-11T08:51:52.530Z,0.70
2019-01-11T08:54:34.609Z,0.70
2019-01-11T08:57:23.745Z,0.70
2019-01-11T09:02:56.993Z,0.60
2019-01-11T09:05:39.767Z,0.60
2019-01-11T09:11:25.742Z,0.60
2019-01-11T09:17:16.859Z,0.70
2019-01-11T09:20:17.352Z,0.70
2019-01-11T09:22:59.035Z,0.70
2019-01-11T09:25:40.893Z,0.80
2019-01-11T09:28:29.013Z,0.70
2019-01-11T09:31:16.990Z,0.70
2019-01-11T09:33:59.530Z,0.80
2019-01-11T09:36:47.515Z,0.80
2019-01-11T09:39:28.655Z,0.80
2019-01-11T09:41:58.623Z,1.00
2019-01-11T09:44:46.795Z,1.00
2019-01-11T09:47:28.325Z,1.00
2019-01-11T09:50:16.512Z,1.00
2019-01-11T09:53:01.339Z,0.90
2019-01-11T09:55:49.617Z,0.80
2019-01-11T09:58:32.116Z,0.90
2019-01-11T10:01:20.141Z,1.00
2019-01-11T10:04:01.592Z,0.90
2019-01-11T10:07:09.104Z,0.90
2019-01-11T10:09:51.118Z,1.00
2019-01-11T10:12:39.098Z,1.00
2019-01-11T10:15:27.143Z,1.10
2019-01-11T10:18:15.177Z,1.00
2019-01-11T10:20:56.789Z,1.00
2019-01-11T10:26:41.660Z,1.10
2019-01-11T10:29:29.738Z,1.10
2019-01-11T10:32:12.427Z,1.20
2019-01-11T10:35:02.287Z,1.20
2019-01-11T10:37:44.028Z,1.20
2019-01-11T10:40:32.197Z,1.20
2019-01-11T10:43:13.767Z,1.20
2019-01-11T10:48:54.431Z,1.20
2019-01-11T10:51:42.793Z,1.20
2019-01-11T10:54:25.927Z,1.20
2019-01-11T10:57:13.993Z,1.20
2019-01-11T10:59:55.595Z,1.20
2019-01-11T11:02:43.636Z,1.20
2019-01-11T11:05:12.637Z,1.10
2019-01-11T11:08:00.654Z,1.10
2019-01-11T11:10:29.505Z,1.20
2019-01-11T11:12:58.562Z,1.10
2019-01-11T11:15:27.499Z,1.00
2019-01-11T11:18:15.577Z,1.10
2019-01-11T11:21:03.927Z,1.20
2019-01-11T11:23:45.502Z,1.20
2019-01-11T11:26:34.083Z,1.20
2019-01-11T11:29:23.040Z,1.10
2019-01-11T11:35:15.974Z,1.10
2019-01-11T11:37:57.393Z,1.30
2019-01-11T11:40:45.521Z,1.20
2019-01-11T11:43:27.289Z,1.10
2019-01-11T11:46:15.274Z,1.00
2019-01-11T11:48:44.039Z,1.10
2019-01-11T11:51:12.830Z,1.10
2019-01-11T11:54:00.825Z,1.10
2019-01-11T11:56:29.684Z,1.00
2019-01-11T11:59:17.650Z,1.10
2019-01-11T12:02:05.652Z,1.10
2019-01-11T12:04:53.790Z,1.10
2019-01-11T12:07:22.825Z,1.00
2019-01-11T12:10:31.597Z,0.90
2019-01-11T12:13:12.989Z,0.90
2019-01-11T12:16:01.139Z,0.90
2019-01-11T12:18:42.720Z,0.90
2019-01-11T12:21:30.718Z,0.90
2019-01-11T12:24:12.950Z,0.80
2019-01-11T12:26:54.892Z,0.80
2019-01-11T12:29:42.909Z,0.70
2019-01-11T12:32:31.278Z,0.60
2019-01-11T12:34:59.828Z,0.60
2019-01-11T12:37:47.885Z,0.70
2019-01-11T12:40:35.952Z,0.50
2019-01-11T12:43:23.991Z,0.80
2019-01-11T12:46:12.565Z,0.70
2019-01-11T12:48:55.591Z,0.70
2019-01-11T12:51:43.657Z,0.60
2019-01-11T12:54:25.280Z,0.60
2019-01-11T12:57:13.251Z,0.60
2019-01-11T12:59:56.147Z,0.60
2019-01-11T13:02:45.333Z,0.50
2019-01-11T13:05:27.121Z,0.60
2019-01-11T13:07:56.917Z,0.50
2019-01-11T13:10:46.333Z,0.80
2019-01-11T13:13:34.733Z,0.90
2019-01-11T13:16:16.149Z,0.90
2019-01-11T13:19:08.010Z,0.70
2019-01-11T13:22:00.659Z,0.80
2019-01-11T13:24:40.750Z,0.70
2019-01-11T13:27:28.819Z,0.70
2019-01-11T13:30:11.428Z,0.70
2019-01-11T13:32:59.514Z,0.40
2019-01-11T13:35:40.766Z,0.60
2019-01-11T13:38:28.812Z,0.70
2019-01-11T13:41:10.409Z,0.70
2019-01-11T13:43:58.443Z,0.70
2019-01-11T13:46:27.310Z,0.80
2019-01-11T13:49:15.546Z,0.90
2019-01-11T13:52:07.198Z,0.90
2019-01-11T13:54:46.513Z,0.80
2019-01-11T13:57:34.473Z,0.80
2019-01-11T14:00:18.995Z,0.80
2019-01-11T14:03:07.222Z,0.70
2019-01-11T14:05:49.231Z,0.80
2019-01-11T14:08:37.245Z,0.90
2019-01-11T14:11:19.054Z,0.90
2019-01-11T14:14:07.068Z,0.90
2019-01-11T14:16:49.003Z,0.90
2019-01-11T14:19:37.044Z,0.90
2019-01-11T14:22:18.857Z,0.80
2019-01-11T14:24:47.555Z,0.80
2019-01-11T14:27:37.272Z,0.80
2019-01-11T14:30:38.896Z,0.90
2019-01-11T14:33:10.842Z,0.90
2019-01-11T14:35:59.739Z,0.80
2019-01-11T14:38:40.964Z,0.80
2019-01-11T14:41:22.326Z,0.70
2019-01-11T14:44:10.445Z,0.80
2019-01-11T14:49:20.060Z,1.00
2019-01-11T14:52:08.126Z,0.80
2019-01-11T14:54:56.095Z,0.80
2019-01-11T14:57:37.985Z,0.70
2019-01-11T15:00:26.048Z,0.60
2019-01-11T15:03:11.918Z,0.80
2019-01-11T15:05:54.000Z,0.70
2019-01-11T15:08:41.986Z,0.70
2019-01-11T15:11:23.919Z,0.60
2019-01-11T15:14:12.287Z,0.70
2019-01-11T15:16:54.061Z,0.70
2019-01-11T15:19:42.161Z,0.60
2019-01-11T15:22:28.018Z,0.70
2019-01-11T15:25:09.848Z,0.80
2019-01-11T15:27:51.606Z,0.50
2019-01-11T15:30:39.663Z,0.70
2019-01-11T15:33:21.619Z,0.70
2019-01-11T15:36:09.824Z,0.60
2019-01-11T15:38:51.589Z,0.70
2019-01-11T15:41:39.616Z,0.70
2019-01-11T15:44:21.328Z,0.80
2019-01-11T15:47:03.469Z,0.80
2019-01-11T15:49:51.556Z,0.70
2019-01-11T15:52:33.628Z,0.80
2019-01-11T15:55:21.649Z,0.90
2019-01-11T15:58:03.799Z,0.80
2019-01-11T16:00:51.836Z,0.80
2019-01-11T16:03:33.851Z,0.90
2019-01-11T16:06:42.550Z,0.80
2019-01-11T16:09:25.788Z,0.90
2019-01-11T16:12:13.743Z,0.90
2019-01-11T16:15:21.004Z,1.00
2019-01-11T16:18:10.502Z,1.00
2019-01-11T16:20:51.816Z,0.90
2019-01-11T16:26:39.923Z,0.80
2019-01-11T16:29:21.701Z,0.70
2019-01-11T16:32:09.874Z,0.70
2019-01-11T16:34:51.933Z,0.70
2019-01-11T16:37:39.989Z,0.70
2019-01-11T16:40:22.047Z,0.80
2019-01-11T16:43:10.041Z,0.70
2019-01-11T16:45:51.890Z,0.80
2019-01-11T16:48:39.901Z,0.80
2019-01-11T16:51:25.220Z,0.80
2019-01-11T16:54:13.190Z,0.90
2019-01-11T16:56:54.973Z,0.90
2019-01-11T16:59:43.367Z,0.90
2019-01-11T17:02:25.037Z,1.00
2019-01-11T17:05:13.341Z,1.10
2019-01-11T17:08:08.559Z,1.00
2019-01-11T17:10:56.634Z,1.10
2019-01-11T17:13:44.680Z,1.00
2019-01-11T17:16:32.848Z,1.20
2019-01-11T17:19:20.969Z,1.00
2019-01-11T17:22:02.617Z,1.30
2019-01-11T17:24:50.677Z,1.30
2019-01-11T17:27:32.687Z,1.30
2019-01-11T17:30:15.409Z,1.30
2019-01-11T17:33:03.423Z,1.30
2019-01-11T17:35:45.234Z,1.40
2019-01-11T17:38:33.268Z,1.40
2019-01-11T17:41:15.330Z,1.60
2019-01-11T17:44:03.365Z,1.50
2019-01-11T17:46:45.339Z,1.50
2019-01-11T17:49:33.376Z,1.60
2019-01-11T17:52:21.400Z,1.60
2019-01-11T17:55:09.506Z,1.60
2019-01-11T17:57:57.456Z,1.60
2019-01-11T18:00:41.029Z,1.50
2019-01-11T18:03:29.021Z,1.60
2019-01-11T18:06:10.789Z,1.60
2019-01-11T18:08:58.760Z,1.60
2019-01-11T18:11:44.656Z,1.60
2019-01-11T18:14:25.863Z,1.60
2019-01-11T18:17:13.880Z,1.60
2019-01-11T18:19:55.872Z,1.60
2019-01-11T18:22:43.963Z,1.60
2019-01-11T18:25:25.154Z,1.60
2019-01-11T18:28:13.193Z,1.60
2019-01-11T18:30:58.217Z,1.60
2019-01-11T18:33:26.988Z,1.60
2019-01-11T18:36:15.039Z,1.60
2019-01-11T18:39:03.083Z,1.60
2019-01-11T18:41:44.840Z,1.60
2019-01-11T18:44:32.860Z,1.70
2019-01-11T18:47:14.701Z,1.70
2019-01-11T18:50:02.855Z,1.80
2019-01-11T18:52:44.618Z,1.70
2019-01-11T18:55:26.042Z,1.60
2019-01-11T18:58:14.033Z,1.70
2019-01-11T19:01:02.064Z,1.70
2019-01-11T19:03:44.279Z,1.80
2019-01-11T19:06:32.362Z,1.80
2019-01-11T19:09:14.570Z,1.80
2019-01-11T19:12:02.583Z,1.90
2019-01-11T19:14:31.260Z,2.00
2019-01-11T19:17:19.184Z,1.80
2019-01-11T19:20:01.120Z,1.90
2019-01-11T19:22:49.116Z,2.00
2019-01-11T19:25:30.735Z,2.00
2019-01-11T19:28:18.788Z,1.90
2019-01-11T19:31:00.683Z,1.80
2019-01-11T19:33:48.728Z,1.90
2019-01-11T19:36:29.880Z,1.90
2019-01-11T19:39:17.912Z,1.90
2019-01-11T19:41:59.531Z,1.90
2019-01-11T19:44:47.551Z,1.90
2019-01-11T19:47:29.180Z,1.90
2019-01-11T19:50:18.152Z,1.90
2019-01-11T19:52:59.792Z,1.90
2019-01-11T19:55:47.828Z,1.90
2019-01-11T19:58:35.858Z,1.80
2019-01-11T20:04:19.742Z,1.90
2019-01-11T20:07:07.732Z,1.80
2019-01-11T20:09:49.507Z,1.90
2019-01-11T20:12:37.511Z,1.70
2019-01-11T20:15:19.564Z,1.90
2019-01-11T20:18:07.598Z,1.90
2019-01-11T20:20:48.840Z,1.90
2019-01-11T20:23:37.076Z,2.00
2019-01-11T20:26:25.142Z,2.10
2019-01-11T20:29:13.847Z,2.10
2019-01-11T20:31:56.956Z,1.90
2019-01-11T20:34:45.016Z,2.10
2019-01-11T20:37:28.646Z,2.10
2019-01-11T20:40:17.037Z,2.10
2019-01-11T20:43:05.075Z,2.10
2019-01-11T20:45:46.609Z,2.10
2019-01-11T20:48:34.669Z,2.20
2019-01-11T20:51:16.099Z,2.10
2019-01-11T20:54:04.201Z,2.20
2019-01-11T20:56:45.988Z,2.20
2019-01-11T20:59:33.989Z,2.20
2019-01-11T21:02:15.712Z,2.30
2019-01-11T21:05:04.193Z,2.30
2019-01-11T21:07:45.636Z,2.20
2019-01-11T21:10:33.573Z,2.10
2019-01-11T21:13:14.952Z,2.10
2019-01-11T21:16:03.849Z,2.30
2019-01-11T21:18:45.385Z,2.30
2019-01-11T21:21:33.353Z,2.30
2019-01-11T21:24:15.192Z,2.30
2019-01-11T21:27:03.257Z,2.30
2019-01-11T21:29:45.169Z,2.40
2019-01-11T21:32:27.171Z,2.30
2019-01-11T21:35:15.212Z,2.30
2019-01-11T21:37:56.537Z,2.20
2019-01-11T21:40:44.532Z,2.30
2019-01-11T21:43:26.880Z,2.30
2019-01-11T21:46:14.861Z,2.30
2019-01-11T21:48:57.222Z,2.40
2019-01-11T21:51:45.212Z,2.40
2019-01-11T21:54:27.215Z,2.50
2019-01-11T21:57:15.205Z,2.50
2019-01-11T21:59:56.426Z,2.40
2019-01-11T22:02:45.047Z,2.40
2019-01-11T22:05:27.555Z,2.50
2019-01-11T22:08:15.527Z,2.50
2019-01-11T22:10:57.761Z,2.50
2019-01-11T22:13:45.753Z,2.50
2019-01-11T22:16:33.783Z,2.50
2019-01-11T22:19:15.577Z,2.40
2019-01-11T22:22:03.608Z,2.40
2019-01-11T22:24:45.706Z,2.40
2019-01-11T22:27:33.735Z,2.40
2019-01-11T22:30:16.949Z,2.50
2019-01-11T22:33:04.984Z,2.50
2019-01-11T22:35:46.878Z,2.60
2019-01-11T22:38:34.853Z,2.40
2019-01-11T22:41:17.870Z,2.50
2019-01-11T22:44:06.040Z,2.40
2019-01-11T22:46:47.231Z,2.50
2019-01-11T22:49:35.234Z,2.50
2019-01-11T22:52:16.718Z,2.50
2019-01-11T22:55:18.569Z,2.50
2019-01-11T22:58:00.453Z,2.50
2019-01-11T23:01:07.750Z,2.40
2019-01-11T23:03:49.540Z,2.60
2019-01-11T23:06:56.876Z,2.70
2019-01-11T23:09:39.715Z,2.60
2019-01-11T23:12:48.406Z,2.60
2019-01-11T23:15:30.299Z,2.60
2019-01-11T23:18:18.268Z,2.60
2019-01-11T23:21:00.173Z,2.50
2019-01-11T23:23:48.203Z,2.50
2019-01-11T23:26:29.356Z,2.50
2019-01-11T23:29:17.390Z,2.50
2019-01-11T23:31:58.621Z,2.50
2019-01-11T23:34:46.683Z,2.50
2019-01-11T23:37:28.708Z,2.60
2019-01-11T23:43:17.225Z,2.60
2019-01-11T23:46:05.264Z,2.70
2019-01-11T23:48:46.659Z,2.60
2019-01-11T23:51:15.434Z,2.60
2019-01-11T23:54:03.465Z,2.60
2019-01-11T23:56:45.168Z,2.60
2019-01-11T23:59:27.180Z,2.50
